sensor_id;sensor_type;location;lat;lon;timestamp;P1;durP1;ratioP1;P2;durP2;ratioP2
60016;SDS011;45869;52.698;6.210;2023-04-24T00:00:56;0.50;;;0.20;;
60016;SDS011;45869;52.698;6.210;2023-04-24T00:03:24;0.60;;;0.30;;
60016;SDS011;45869;52.698;6.210;2023-04-24T00:05:50;0.60;;;0.22;;
60016;SDS011;45869;52.698;6.210;2023-04-24T00:08:16;0.50;;;0.30;;
60016;SDS011;45869;52.698;6.210;2023-04-24T00:10:42;3.10;;;0.30;;
60016;SDS011;45869;52.698;6.210;2023-04-24T00:13:08;0.85;;;0.30;;
60016;SDS011;45869;52.698;6.210;2023-04-24T00:15:34;0.50;;;0.28;;
60016;SDS011;45869;52.698;6.210;2023-04-24T00:18:00;0.40;;;0.25;;
60016;SDS011;45869;52.698;6.210;2023-04-24T00:20:27;0.95;;;0.30;;
60016;SDS011;45869;52.698;6.210;2023-04-24T00:22:54;0.93;;;0.30;;
60016;SDS011;45869;52.698;6.210;2023-04-24T00:25:20;0.47;;;0.30;;
60016;SDS011;45869;52.698;6.210;2023-04-24T00:27:46;0.95;;;0.35;;
60016;SDS011;45869;52.698;6.210;2023-04-24T00:30:12;2.25;;;0.30;;
60016;SDS011;45869;52.698;6.210;2023-04-24T00:32:38;2.15;;;0.30;;
60016;SDS011;45869;52.698;6.210;2023-04-24T00:35:05;1.88;;;0.40;;
60016;SDS011;45869;52.698;6.210;2023-04-24T00:37:31;0.50;;;0.38;;
60016;SDS011;45869;52.698;6.210;2023-04-24T00:39:57;1.15;;;0.50;;
60016;SDS011;45869;52.698;6.210;2023-04-24T00:42:23;1.00;;;0.60;;
60016;SDS011;45869;52.698;6.210;2023-04-24T00:44:49;1.80;;;0.80;;
60016;SDS011;45869;52.698;6.210;2023-04-24T00:47:19;1.25;;;0.55;;
60016;SDS011;45869;52.698;6.210;2023-04-24T00:49:46;0.95;;;0.68;;
60016;SDS011;45869;52.698;6.210;2023-04-24T00:52:12;1.50;;;0.70;;
60016;SDS011;45869;52.698;6.210;2023-04-24T00:54:43;1.40;;;1.00;;
60016;SDS011;45869;52.698;6.210;2023-04-24T00:57:10;1.00;;;0.70;;
60016;SDS011;45869;52.698;6.210;2023-04-24T00:59:36;2.30;;;0.73;;
60016;SDS011;45869;52.698;6.210;2023-04-24T01:02:02;1.40;;;1.00;;
60016;SDS011;45869;52.698;6.210;2023-04-24T01:04:28;1.50;;;1.10;;
60016;SDS011;45869;52.698;6.210;2023-04-24T01:06:55;1.77;;;1.20;;
60016;SDS011;45869;52.698;6.210;2023-04-24T01:09:21;2.10;;;1.60;;
60016;SDS011;45869;52.698;6.210;2023-04-24T01:11:49;1.50;;;1.30;;
60016;SDS011;45869;52.698;6.210;2023-04-24T01:14:15;1.40;;;1.20;;
60016;SDS011;45869;52.698;6.210;2023-04-24T01:16:41;1.48;;;1.05;;
60016;SDS011;45869;52.698;6.210;2023-04-24T01:19:07;1.83;;;1.35;;
60016;SDS011;45869;52.698;6.210;2023-04-24T01:21:36;2.15;;;1.40;;
60016;SDS011;45869;52.698;6.210;2023-04-24T01:24:06;1.85;;;1.67;;
60016;SDS011;45869;52.698;6.210;2023-04-24T01:26:32;1.85;;;1.48;;
60016;SDS011;45869;52.698;6.210;2023-04-24T01:28:58;1.88;;;1.38;;
60016;SDS011;45869;52.698;6.210;2023-04-24T01:31:24;2.05;;;1.15;;
60016;SDS011;45869;52.698;6.210;2023-04-24T01:33:51;2.30;;;1.40;;
60016;SDS011;45869;52.698;6.210;2023-04-24T01:36:17;2.40;;;2.00;;
60016;SDS011;45869;52.698;6.210;2023-04-24T01:38:43;1.88;;;1.38;;
60016;SDS011;45869;52.698;6.210;2023-04-24T01:41:10;1.70;;;1.30;;
60016;SDS011;45869;52.698;6.210;2023-04-24T01:43:36;2.03;;;1.55;;
60016;SDS011;45869;52.698;6.210;2023-04-24T01:46:02;1.73;;;1.30;;
60016;SDS011;45869;52.698;6.210;2023-04-24T01:48:28;2.10;;;1.20;;
60016;SDS011;45869;52.698;6.210;2023-04-24T01:50:55;1.48;;;1.27;;
60016;SDS011;45869;52.698;6.210;2023-04-24T01:53:28;1.73;;;1.33;;
60016;SDS011;45869;52.698;6.210;2023-04-24T01:55:54;3.10;;;1.10;;
60016;SDS011;45869;52.698;6.210;2023-04-24T01:58:23;3.83;;;1.38;;
60016;SDS011;45869;52.698;6.210;2023-04-24T02:00:49;2.55;;;1.15;;
60016;SDS011;45869;52.698;6.210;2023-04-24T02:03:15;1.15;;;1.00;;
60016;SDS011;45869;52.698;6.210;2023-04-24T02:05:43;1.58;;;0.82;;
60016;SDS011;45869;52.698;6.210;2023-04-24T02:08:10;1.77;;;1.10;;
60016;SDS011;45869;52.698;6.210;2023-04-24T02:10:36;1.65;;;0.90;;
60016;SDS011;45869;52.698;6.210;2023-04-24T02:13:02;2.40;;;0.90;;
60016;SDS011;45869;52.698;6.210;2023-04-24T02:15:28;1.63;;;1.25;;
60016;SDS011;45869;52.698;6.210;2023-04-24T02:17:54;1.73;;;1.00;;
60016;SDS011;45869;52.698;6.210;2023-04-24T02:20:20;2.45;;;0.90;;
60016;SDS011;45869;52.698;6.210;2023-04-24T02:22:46;1.77;;;1.02;;
60016;SDS011;45869;52.698;6.210;2023-04-24T02:25:12;1.50;;;0.82;;
60016;SDS011;45869;52.698;6.210;2023-04-24T02:27:39;1.90;;;0.70;;
60016;SDS011;45869;52.698;6.210;2023-04-24T02:30:05;1.23;;;0.90;;
60016;SDS011;45869;52.698;6.210;2023-04-24T02:32:31;2.13;;;0.65;;
60016;SDS011;45869;52.698;6.210;2023-04-24T02:34:58;1.10;;;0.82;;
60016;SDS011;45869;52.698;6.210;2023-04-24T02:37:24;1.27;;;0.68;;
60016;SDS011;45869;52.698;6.210;2023-04-24T02:39:50;0.75;;;0.52;;
60016;SDS011;45869;52.698;6.210;2023-04-24T02:42:16;1.98;;;0.60;;
60016;SDS011;45869;52.698;6.210;2023-04-24T02:44:42;2.42;;;0.82;;
60016;SDS011;45869;52.698;6.210;2023-04-24T02:47:08;0.82;;;0.50;;
60016;SDS011;45869;52.698;6.210;2023-04-24T02:49:34;1.05;;;0.60;;
60016;SDS011;45869;52.698;6.210;2023-04-24T02:52:00;2.13;;;0.70;;
60016;SDS011;45869;52.698;6.210;2023-04-24T02:54:26;0.90;;;0.60;;
60016;SDS011;45869;52.698;6.210;2023-04-24T02:56:52;1.00;;;0.65;;
60016;SDS011;45869;52.698;6.210;2023-04-24T02:59:18;1.27;;;0.60;;
60016;SDS011;45869;52.698;6.210;2023-04-24T03:01:44;1.30;;;0.65;;
60016;SDS011;45869;52.698;6.210;2023-04-24T03:04:10;1.35;;;0.50;;
60016;SDS011;45869;52.698;6.210;2023-04-24T03:06:36;0.90;;;0.50;;
60016;SDS011;45869;52.698;6.210;2023-04-24T03:09:02;2.45;;;0.60;;
60016;SDS011;45869;52.698;6.210;2023-04-24T03:11:28;1.65;;;0.50;;
60016;SDS011;45869;52.698;6.210;2023-04-24T03:14:00;2.08;;;0.60;;
60016;SDS011;45869;52.698;6.210;2023-04-24T03:16:33;2.50;;;0.50;;
60016;SDS011;45869;52.698;6.210;2023-04-24T03:19:05;0.68;;;0.40;;
60016;SDS011;45869;52.698;6.210;2023-04-24T03:21:31;0.85;;;0.43;;
60016;SDS011;45869;52.698;6.210;2023-04-24T03:23:57;0.88;;;0.40;;
60016;SDS011;45869;52.698;6.210;2023-04-24T03:26:26;0.93;;;0.40;;
60016;SDS011;45869;52.698;6.210;2023-04-24T03:28:52;0.63;;;0.50;;
60016;SDS011;45869;52.698;6.210;2023-04-24T03:31:18;0.93;;;0.30;;
60016;SDS011;45869;52.698;6.210;2023-04-24T03:33:46;0.90;;;0.30;;
60016;SDS011;45869;52.698;6.210;2023-04-24T03:36:12;0.93;;;0.30;;
60016;SDS011;45869;52.698;6.210;2023-04-24T03:38:38;1.42;;;0.20;;
60016;SDS011;45869;52.698;6.210;2023-04-24T03:41:04;0.50;;;0.20;;
60016;SDS011;45869;52.698;6.210;2023-04-24T03:43:30;0.52;;;0.20;;
60016;SDS011;45869;52.698;6.210;2023-04-24T03:45:58;0.73;;;0.20;;
60016;SDS011;45869;52.698;6.210;2023-04-24T03:48:24;0.40;;;0.20;;
60016;SDS011;45869;52.698;6.210;2023-04-24T03:50:50;0.70;;;0.20;;
60016;SDS011;45869;52.698;6.210;2023-04-24T03:53:16;0.73;;;0.10;;
60016;SDS011;45869;52.698;6.210;2023-04-24T03:55:42;0.50;;;0.10;;
60016;SDS011;45869;52.698;6.210;2023-04-24T03:58:11;0.52;;;0.15;;
60016;SDS011;45869;52.698;6.210;2023-04-24T04:00:39;1.20;;;0.20;;
60016;SDS011;45869;52.698;6.210;2023-04-24T04:03:05;2.25;;;0.20;;
60016;SDS011;45869;52.698;6.210;2023-04-24T04:05:31;0.45;;;0.20;;
60016;SDS011;45869;52.698;6.210;2023-04-24T04:07:57;1.30;;;0.30;;
60016;SDS011;45869;52.698;6.210;2023-04-24T04:10:23;0.40;;;0.20;;
60016;SDS011;45869;52.698;6.210;2023-04-24T04:12:49;1.23;;;0.30;;
60016;SDS011;45869;52.698;6.210;2023-04-24T04:15:15;0.77;;;0.22;;
60016;SDS011;45869;52.698;6.210;2023-04-24T04:17:41;1.52;;;0.20;;
60016;SDS011;45869;52.698;6.210;2023-04-24T04:20:07;1.83;;;0.35;;
60016;SDS011;45869;52.698;6.210;2023-04-24T04:22:37;0.43;;;0.20;;
60016;SDS011;45869;52.698;6.210;2023-04-24T04:25:03;0.98;;;0.28;;
60016;SDS011;45869;52.698;6.210;2023-04-24T04:27:29;0.47;;;0.20;;
60016;SDS011;45869;52.698;6.210;2023-04-24T04:30:00;1.73;;;0.38;;
60016;SDS011;45869;52.698;6.210;2023-04-24T04:32:32;0.93;;;0.40;;
60016;SDS011;45869;52.698;6.210;2023-04-24T04:34:58;0.60;;;0.30;;
60016;SDS011;45869;52.698;6.210;2023-04-24T04:37:28;0.95;;;0.50;;
60016;SDS011;45869;52.698;6.210;2023-04-24T04:39:57;0.80;;;0.43;;
60016;SDS011;45869;52.698;6.210;2023-04-24T04:42:24;0.95;;;0.60;;
60016;SDS011;45869;52.698;6.210;2023-04-24T04:44:53;1.25;;;0.80;;
60016;SDS011;45869;52.698;6.210;2023-04-24T04:47:23;3.80;;;2.03;;
60016;SDS011;45869;52.698;6.210;2023-04-24T04:49:55;2.42;;;1.70;;
60016;SDS011;45869;52.698;6.210;2023-04-24T04:52:24;2.78;;;2.08;;
60016;SDS011;45869;52.698;6.210;2023-04-24T04:54:53;4.63;;;2.60;;
60016;SDS011;45869;52.698;6.210;2023-04-24T04:57:19;2.60;;;1.45;;
60016;SDS011;45869;52.698;6.210;2023-04-24T04:59:45;2.20;;;1.52;;
60016;SDS011;45869;52.698;6.210;2023-04-24T05:02:11;5.15;;;3.55;;
60016;SDS011;45869;52.698;6.210;2023-04-24T05:04:37;3.22;;;2.15;;
60016;SDS011;45869;52.698;6.210;2023-04-24T05:07:03;4.75;;;3.20;;
60016;SDS011;45869;52.698;6.210;2023-04-24T05:09:30;5.38;;;3.08;;
60016;SDS011;45869;52.698;6.210;2023-04-24T05:12:02;6.07;;;3.88;;
60016;SDS011;45869;52.698;6.210;2023-04-24T05:14:28;5.07;;;2.88;;
60016;SDS011;45869;52.698;6.210;2023-04-24T05:16:54;3.75;;;2.08;;
60016;SDS011;45869;52.698;6.210;2023-04-24T05:19:20;3.30;;;2.20;;
60016;SDS011;45869;52.698;6.210;2023-04-24T05:21:46;2.85;;;2.05;;
60016;SDS011;45869;52.698;6.210;2023-04-24T05:24:12;4.43;;;2.45;;
60016;SDS011;45869;52.698;6.210;2023-04-24T05:26:38;4.40;;;3.53;;
60016;SDS011;45869;52.698;6.210;2023-04-24T05:29:04;4.60;;;2.33;;
60016;SDS011;45869;52.698;6.210;2023-04-24T05:31:30;5.07;;;2.97;;
60016;SDS011;45869;52.698;6.210;2023-04-24T05:33:56;5.60;;;3.40;;
60016;SDS011;45869;52.698;6.210;2023-04-24T05:36:22;4.13;;;2.80;;
60016;SDS011;45869;52.698;6.210;2023-04-24T05:38:48;5.35;;;3.17;;
60016;SDS011;45869;52.698;6.210;2023-04-24T05:41:14;4.07;;;3.08;;
60016;SDS011;45869;52.698;6.210;2023-04-24T05:43:40;4.97;;;3.42;;
60016;SDS011;45869;52.698;6.210;2023-04-24T05:46:06;4.90;;;2.80;;
60016;SDS011;45869;52.698;6.210;2023-04-24T05:48:32;5.03;;;2.88;;
60016;SDS011;45869;52.698;6.210;2023-04-24T05:50:58;4.07;;;2.80;;
60016;SDS011;45869;52.698;6.210;2023-04-24T05:53:24;4.68;;;3.05;;
60016;SDS011;45869;52.698;6.210;2023-04-24T05:55:50;4.55;;;2.58;;
60016;SDS011;45869;52.698;6.210;2023-04-24T05:58:16;3.50;;;2.35;;
60016;SDS011;45869;52.698;6.210;2023-04-24T06:00:42;3.35;;;2.20;;
60016;SDS011;45869;52.698;6.210;2023-04-24T06:03:14;4.25;;;2.63;;
60016;SDS011;45869;52.698;6.210;2023-04-24T06:05:40;3.33;;;2.00;;
60016;SDS011;45869;52.698;6.210;2023-04-24T06:08:06;3.97;;;1.75;;
60016;SDS011;45869;52.698;6.210;2023-04-24T06:10:35;3.75;;;1.98;;
60016;SDS011;45869;52.698;6.210;2023-04-24T06:13:01;3.80;;;1.98;;
60016;SDS011;45869;52.698;6.210;2023-04-24T06:15:28;3.17;;;1.80;;
60016;SDS011;45869;52.698;6.210;2023-04-24T06:17:55;2.92;;;1.92;;
60016;SDS011;45869;52.698;6.210;2023-04-24T06:20:21;3.10;;;1.75;;
60016;SDS011;45869;52.698;6.210;2023-04-24T06:22:47;4.05;;;2.08;;
60016;SDS011;45869;52.698;6.210;2023-04-24T06:25:13;3.17;;;1.88;;
60016;SDS011;45869;52.698;6.210;2023-04-24T06:27:39;2.90;;;1.80;;
60016;SDS011;45869;52.698;6.210;2023-04-24T06:30:05;5.65;;;2.10;;
60016;SDS011;45869;52.698;6.210;2023-04-24T06:32:32;3.65;;;2.08;;
60016;SDS011;45869;52.698;6.210;2023-04-24T06:34:58;3.63;;;2.03;;
60016;SDS011;45869;52.698;6.210;2023-04-24T06:37:24;4.60;;;2.40;;
60016;SDS011;45869;52.698;6.210;2023-04-24T06:39:53;4.35;;;2.40;;
60016;SDS011;45869;52.698;6.210;2023-04-24T06:42:19;4.53;;;1.95;;
60016;SDS011;45869;52.698;6.210;2023-04-24T06:44:45;4.97;;;2.83;;
60016;SDS011;45869;52.698;6.210;2023-04-24T06:47:12;3.65;;;2.47;;
60016;SDS011;45869;52.698;6.210;2023-04-24T06:49:41;5.28;;;2.78;;
60016;SDS011;45869;52.698;6.210;2023-04-24T06:52:07;4.30;;;2.28;;
60016;SDS011;45869;52.698;6.210;2023-04-24T06:54:33;5.28;;;2.90;;
60016;SDS011;45869;52.698;6.210;2023-04-24T06:56:59;5.32;;;3.60;;
60016;SDS011;45869;52.698;6.210;2023-04-24T06:59:27;6.07;;;3.40;;
60016;SDS011;45869;52.698;6.210;2023-04-24T07:01:53;6.35;;;3.70;;
60016;SDS011;45869;52.698;6.210;2023-04-24T07:04:19;4.80;;;2.75;;
60016;SDS011;45869;52.698;6.210;2023-04-24T07:06:45;6.50;;;3.75;;
60016;SDS011;45869;52.698;6.210;2023-04-24T07:09:14;3.95;;;2.63;;
60016;SDS011;45869;52.698;6.210;2023-04-24T07:11:41;5.32;;;2.70;;
60016;SDS011;45869;52.698;6.210;2023-04-24T07:14:07;5.28;;;2.90;;
60016;SDS011;45869;52.698;6.210;2023-04-24T07:16:33;4.35;;;2.42;;
60016;SDS011;45869;52.698;6.210;2023-04-24T07:19:00;4.43;;;2.58;;
60016;SDS011;45869;52.698;6.210;2023-04-24T07:21:26;5.13;;;2.83;;
60016;SDS011;45869;52.698;6.210;2023-04-24T07:23:52;3.40;;;2.22;;
60016;SDS011;45869;52.698;6.210;2023-04-24T07:26:19;3.05;;;2.13;;
60016;SDS011;45869;52.698;6.210;2023-04-24T07:28:45;3.60;;;2.17;;
60016;SDS011;45869;52.698;6.210;2023-04-24T07:31:11;4.70;;;2.60;;
60016;SDS011;45869;52.698;6.210;2023-04-24T07:33:37;4.53;;;2.25;;
60016;SDS011;45869;52.698;6.210;2023-04-24T07:36:03;5.63;;;2.42;;
60016;SDS011;45869;52.698;6.210;2023-04-24T07:38:30;5.43;;;2.13;;
60016;SDS011;45869;52.698;6.210;2023-04-24T07:40:56;4.22;;;1.90;;
60016;SDS011;45869;52.698;6.210;2023-04-24T07:43:22;5.15;;;2.10;;
60016;SDS011;45869;52.698;6.210;2023-04-24T07:45:49;3.45;;;2.15;;
60016;SDS011;45869;52.698;6.210;2023-04-24T07:48:15;5.05;;;2.97;;
60016;SDS011;45869;52.698;6.210;2023-04-24T07:50:42;7.60;;;3.40;;
60016;SDS011;45869;52.698;6.210;2023-04-24T07:53:08;9.68;;;5.55;;
60016;SDS011;45869;52.698;6.210;2023-04-24T07:55:35;8.70;;;4.95;;
60016;SDS011;45869;52.698;6.210;2023-04-24T07:58:01;8.73;;;5.30;;
60016;SDS011;45869;52.698;6.210;2023-04-24T08:00:27;9.52;;;6.05;;
60016;SDS011;45869;52.698;6.210;2023-04-24T08:02:53;9.18;;;6.15;;
60016;SDS011;45869;52.698;6.210;2023-04-24T08:05:19;12.27;;;8.57;;
60016;SDS011;45869;52.698;6.210;2023-04-24T08:07:45;14.35;;;8.30;;
60016;SDS011;45869;52.698;6.210;2023-04-24T08:10:13;12.13;;;8.38;;
60016;SDS011;45869;52.698;6.210;2023-04-24T08:12:40;16.00;;;10.57;;
60016;SDS011;45869;52.698;6.210;2023-04-24T08:15:06;13.95;;;8.93;;
60016;SDS011;45869;52.698;6.210;2023-04-24T08:17:32;14.98;;;9.48;;
60016;SDS011;45869;52.698;6.210;2023-04-24T08:19:58;14.75;;;9.82;;
60016;SDS011;45869;52.698;6.210;2023-04-24T08:22:26;16.15;;;10.32;;
60016;SDS011;45869;52.698;6.210;2023-04-24T08:24:52;16.33;;;10.95;;
60016;SDS011;45869;52.698;6.210;2023-04-24T08:27:18;20.05;;;12.15;;
60016;SDS011;45869;52.698;6.210;2023-04-24T08:29:44;15.73;;;10.50;;
60016;SDS011;45869;52.698;6.210;2023-04-24T08:32:10;19.25;;;12.60;;
60016;SDS011;45869;52.698;6.210;2023-04-24T08:34:37;18.48;;;11.50;;
60016;SDS011;45869;52.698;6.210;2023-04-24T08:37:03;14.68;;;10.38;;
60016;SDS011;45869;52.698;6.210;2023-04-24T08:39:29;15.10;;;10.57;;
60016;SDS011;45869;52.698;6.210;2023-04-24T08:41:55;18.20;;;10.93;;
60016;SDS011;45869;52.698;6.210;2023-04-24T08:44:21;19.95;;;11.85;;
60016;SDS011;45869;52.698;6.210;2023-04-24T08:46:48;13.77;;;10.23;;
60016;SDS011;45869;52.698;6.210;2023-04-24T08:49:14;13.68;;;9.90;;
60016;SDS011;45869;52.698;6.210;2023-04-24T08:51:44;14.80;;;9.68;;
60016;SDS011;45869;52.698;6.210;2023-04-24T08:54:12;16.58;;;9.85;;
60016;SDS011;45869;52.698;6.210;2023-04-24T08:56:39;12.88;;;9.07;;
60016;SDS011;45869;52.698;6.210;2023-04-24T08:59:06;14.43;;;9.05;;
60016;SDS011;45869;52.698;6.210;2023-04-24T09:01:32;14.57;;;9.30;;
60016;SDS011;45869;52.698;6.210;2023-04-24T09:04:00;14.15;;;8.40;;
60016;SDS011;45869;52.698;6.210;2023-04-24T09:06:27;17.55;;;8.65;;
60016;SDS011;45869;52.698;6.210;2023-04-24T09:08:54;12.10;;;8.05;;
60016;SDS011;45869;52.698;6.210;2023-04-24T09:11:21;12.15;;;7.63;;
60016;SDS011;45869;52.698;6.210;2023-04-24T09:13:49;10.98;;;7.55;;
60016;SDS011;45869;52.698;6.210;2023-04-24T09:16:15;11.77;;;7.30;;
60016;SDS011;45869;52.698;6.210;2023-04-24T09:18:42;9.75;;;7.13;;
60016;SDS011;45869;52.698;6.210;2023-04-24T09:21:08;13.50;;;7.68;;
60016;SDS011;45869;52.698;6.210;2023-04-24T09:23:34;14.57;;;6.90;;
60016;SDS011;45869;52.698;6.210;2023-04-24T09:26:01;8.55;;;6.28;;
60016;SDS011;45869;52.698;6.210;2023-04-24T09:28:34;12.50;;;6.30;;
60016;SDS011;45869;52.698;6.210;2023-04-24T09:31:12;10.38;;;6.00;;
60016;SDS011;45869;52.698;6.210;2023-04-24T09:33:39;12.57;;;5.65;;
60016;SDS011;45869;52.698;6.210;2023-04-24T09:36:05;12.13;;;5.40;;
60016;SDS011;45869;52.698;6.210;2023-04-24T09:41:07;9.10;;;4.47;;
60016;SDS011;45869;52.698;6.210;2023-04-24T09:43:34;9.73;;;4.93;;
60016;SDS011;45869;52.698;6.210;2023-04-24T09:46:04;9.30;;;4.80;;
60016;SDS011;45869;52.698;6.210;2023-04-24T09:48:34;8.73;;;4.40;;
60016;SDS011;45869;52.698;6.210;2023-04-24T09:51:01;11.15;;;5.22;;
60016;SDS011;45869;52.698;6.210;2023-04-24T09:53:28;9.73;;;4.85;;
60016;SDS011;45869;52.698;6.210;2023-04-24T09:55:55;7.00;;;4.13;;
60016;SDS011;45869;52.698;6.210;2023-04-24T09:58:24;10.05;;;4.20;;
60016;SDS011;45869;52.698;6.210;2023-04-24T10:00:54;8.88;;;3.97;;
60016;SDS011;45869;52.698;6.210;2023-04-24T10:03:20;9.52;;;3.22;;
60016;SDS011;45869;52.698;6.210;2023-04-24T10:05:47;8.57;;;3.60;;
60016;SDS011;45869;52.698;6.210;2023-04-24T10:08:13;8.10;;;3.15;;
60016;SDS011;45869;52.698;6.210;2023-04-24T10:10:43;10.82;;;3.03;;
60016;SDS011;45869;52.698;6.210;2023-04-24T10:13:09;7.60;;;2.90;;
60016;SDS011;45869;52.698;6.210;2023-04-24T10:15:36;9.77;;;3.20;;
60016;SDS011;45869;52.698;6.210;2023-04-24T10:18:02;9.15;;;2.80;;
60016;SDS011;45869;52.698;6.210;2023-04-24T10:20:31;7.43;;;2.63;;
60016;SDS011;45869;52.698;6.210;2023-04-24T10:22:57;8.75;;;3.08;;
60016;SDS011;45869;52.698;6.210;2023-04-24T10:25:24;8.13;;;2.70;;
60016;SDS011;45869;52.698;6.210;2023-04-24T10:27:51;8.95;;;3.10;;
60016;SDS011;45869;52.698;6.210;2023-04-24T10:30:18;7.82;;;2.70;;
60016;SDS011;45869;52.698;6.210;2023-04-24T10:32:45;9.50;;;2.65;;
60016;SDS011;45869;52.698;6.210;2023-04-24T10:35:12;9.85;;;3.25;;
60016;SDS011;45869;52.698;6.210;2023-04-24T10:38:02;8.60;;;3.50;;
60016;SDS011;45869;52.698;6.210;2023-04-24T10:40:25;8.93;;;2.90;;
60016;SDS011;45869;52.698;6.210;2023-04-24T10:42:52;12.45;;;3.10;;
60016;SDS011;45869;52.698;6.210;2023-04-24T10:45:22;8.85;;;2.60;;
60016;SDS011;45869;52.698;6.210;2023-04-24T10:47:58;9.07;;;2.40;;
60016;SDS011;45869;52.698;6.210;2023-04-24T10:50:30;8.77;;;2.47;;
60016;SDS011;45869;52.698;6.210;2023-04-24T10:53:11;8.05;;;2.35;;
60016;SDS011;45869;52.698;6.210;2023-04-24T10:55:46;10.73;;;2.40;;
60016;SDS011;45869;52.698;6.210;2023-04-24T10:58:12;7.35;;;2.20;;
60016;SDS011;45869;52.698;6.210;2023-04-24T11:00:39;11.00;;;2.05;;
60016;SDS011;45869;52.698;6.210;2023-04-24T11:03:06;8.35;;;2.00;;
60016;SDS011;45869;52.698;6.210;2023-04-24T11:06:34;6.82;;;1.90;;
60016;SDS011;45869;52.698;6.210;2023-04-24T11:08:32;4.90;;;1.30;;
60016;SDS011;45869;52.698;6.210;2023-04-24T11:11:03;8.07;;;1.85;;
60016;SDS011;45869;52.698;6.210;2023-04-24T11:18:52;7.88;;;1.75;;
60016;SDS011;45869;52.698;6.210;2023-04-24T11:21:25;7.05;;;1.73;;
60016;SDS011;45869;52.698;6.210;2023-04-24T11:23:51;5.05;;;1.60;;
60016;SDS011;45869;52.698;6.210;2023-04-24T11:26:18;5.13;;;1.70;;
60016;SDS011;45869;52.698;6.210;2023-04-24T11:28:48;6.72;;;1.80;;
60016;SDS011;45869;52.698;6.210;2023-04-24T11:34:05;8.82;;;2.05;;
60016;SDS011;45869;52.698;6.210;2023-04-24T11:36:31;9.60;;;2.25;;
60016;SDS011;45869;52.698;6.210;2023-04-24T11:38:57;7.00;;;2.10;;
60016;SDS011;45869;52.698;6.210;2023-04-24T11:41:33;6.95;;;2.28;;
60016;SDS011;45869;52.698;6.210;2023-04-24T11:44:00;6.20;;;1.80;;
60016;SDS011;45869;52.698;6.210;2023-04-24T11:46:30;7.90;;;1.50;;
60016;SDS011;45869;52.698;6.210;2023-04-24T11:48:57;4.82;;;1.50;;
60016;SDS011;45869;52.698;6.210;2023-04-24T11:51:24;4.57;;;1.60;;
60016;SDS011;45869;52.698;6.210;2023-04-24T11:53:53;4.32;;;1.08;;
60016;SDS011;45869;52.698;6.210;2023-04-24T11:56:23;3.05;;;1.02;;
60016;SDS011;45869;52.698;6.210;2023-04-24T11:58:51;4.88;;;1.25;;
60016;SDS011;45869;52.698;6.210;2023-04-24T12:01:18;6.75;;;1.45;;
60016;SDS011;45869;52.698;6.210;2023-04-24T12:03:48;5.75;;;1.45;;
60016;SDS011;45869;52.698;6.210;2023-04-24T12:06:16;4.53;;;1.15;;
60016;SDS011;45869;52.698;6.210;2023-04-24T12:08:45;5.88;;;1.63;;
60016;SDS011;45869;52.698;6.210;2023-04-24T12:11:11;5.93;;;1.48;;
60016;SDS011;45869;52.698;6.210;2023-04-24T12:13:40;3.22;;;1.00;;
60016;SDS011;45869;52.698;6.210;2023-04-24T12:16:06;4.90;;;1.10;;
60016;SDS011;45869;52.698;6.210;2023-04-24T12:18:32;5.05;;;0.73;;
60016;SDS011;45869;52.698;6.210;2023-04-24T12:21:16;4.72;;;1.00;;
60016;SDS011;45869;52.698;6.210;2023-04-24T12:23:43;3.28;;;1.08;;
60016;SDS011;45869;52.698;6.210;2023-04-24T12:26:10;3.78;;;1.00;;
60016;SDS011;45869;52.698;6.210;2023-04-24T12:28:37;6.05;;;0.90;;
60016;SDS011;45869;52.698;6.210;2023-04-24T12:31:06;3.92;;;0.70;;
60016;SDS011;45869;52.698;6.210;2023-04-24T12:33:33;5.05;;;0.68;;
60016;SDS011;45869;52.698;6.210;2023-04-24T12:36:00;4.72;;;0.80;;
60016;SDS011;45869;52.698;6.210;2023-04-24T12:38:27;4.45;;;0.88;;
60016;SDS011;45869;52.698;6.210;2023-04-24T12:41:04;3.67;;;0.82;;
60016;SDS011;45869;52.698;6.210;2023-04-24T12:43:31;5.22;;;1.15;;
60016;SDS011;45869;52.698;6.210;2023-04-24T12:45:57;3.83;;;0.90;;
60016;SDS011;45869;52.698;6.210;2023-04-24T12:48:24;7.60;;;1.10;;
60016;SDS011;45869;52.698;6.210;2023-04-24T12:50:50;7.18;;;1.10;;
60016;SDS011;45869;52.698;6.210;2023-04-24T12:53:16;4.55;;;1.10;;
60016;SDS011;45869;52.698;6.210;2023-04-24T12:55:42;9.02;;;1.65;;
60016;SDS011;45869;52.698;6.210;2023-04-24T12:58:09;6.95;;;0.90;;
60016;SDS011;45869;52.698;6.210;2023-04-24T13:00:35;5.43;;;1.20;;
60016;SDS011;45869;52.698;6.210;2023-04-24T13:03:02;5.10;;;1.00;;
60016;SDS011;45869;52.698;6.210;2023-04-24T13:05:28;3.45;;;0.80;;
60016;SDS011;45869;52.698;6.210;2023-04-24T13:07:54;3.40;;;0.70;;
60016;SDS011;45869;52.698;6.210;2023-04-24T13:10:20;3.58;;;0.65;;
60016;SDS011;45869;52.698;6.210;2023-04-24T13:12:49;2.35;;;0.70;;
60016;SDS011;45869;52.698;6.210;2023-04-24T13:15:15;1.63;;;0.50;;
60016;SDS011;45869;52.698;6.210;2023-04-24T13:17:47;3.67;;;0.65;;
60016;SDS011;45869;52.698;6.210;2023-04-24T13:20:13;3.72;;;0.60;;
60016;SDS011;45869;52.698;6.210;2023-04-24T13:22:39;3.33;;;0.47;;
60016;SDS011;45869;52.698;6.210;2023-04-24T13:25:05;5.78;;;0.50;;
60016;SDS011;45869;52.698;6.210;2023-04-24T13:27:32;3.65;;;0.60;;
60016;SDS011;45869;52.698;6.210;2023-04-24T13:29:58;3.95;;;0.60;;
60016;SDS011;45869;52.698;6.210;2023-04-24T13:32:24;3.88;;;0.73;;
60016;SDS011;45869;52.698;6.210;2023-04-24T13:34:50;3.50;;;0.70;;
60016;SDS011;45869;52.698;6.210;2023-04-24T13:37:16;4.18;;;0.80;;
60016;SDS011;45869;52.698;6.210;2023-04-24T13:39:42;5.10;;;0.95;;
60016;SDS011;45869;52.698;6.210;2023-04-24T13:42:08;4.18;;;0.60;;
60016;SDS011;45869;52.698;6.210;2023-04-24T13:44:34;5.60;;;1.02;;
60016;SDS011;45869;52.698;6.210;2023-04-24T13:47:00;4.55;;;1.08;;
60016;SDS011;45869;52.698;6.210;2023-04-24T13:49:26;4.72;;;1.10;;
60016;SDS011;45869;52.698;6.210;2023-04-24T13:51:53;5.20;;;1.23;;
60016;SDS011;45869;52.698;6.210;2023-04-24T13:54:19;8.07;;;1.38;;
60016;SDS011;45869;52.698;6.210;2023-04-24T13:56:45;5.70;;;1.40;;
60016;SDS011;45869;52.698;6.210;2023-04-24T13:59:15;6.28;;;1.27;;
60016;SDS011;45869;52.698;6.210;2023-04-24T14:01:41;7.10;;;1.20;;
60016;SDS011;45869;52.698;6.210;2023-04-24T14:04:07;8.50;;;1.30;;
60016;SDS011;45869;52.698;6.210;2023-04-24T14:06:32;7.72;;;1.85;;
60016;SDS011;45869;52.698;6.210;2023-04-24T14:08:58;7.53;;;1.50;;
60016;SDS011;45869;52.698;6.210;2023-04-24T14:11:25;7.28;;;1.42;;
60016;SDS011;45869;52.698;6.210;2023-04-24T14:13:52;9.55;;;1.98;;
60016;SDS011;45869;52.698;6.210;2023-04-24T14:16:18;9.82;;;2.03;;
60016;SDS011;45869;52.698;6.210;2023-04-24T14:18:44;6.45;;;1.50;;
60016;SDS011;45869;52.698;6.210;2023-04-24T14:21:10;10.70;;;2.10;;
60016;SDS011;45869;52.698;6.210;2023-04-24T14:23:36;11.00;;;2.20;;
60016;SDS011;45869;52.698;6.210;2023-04-24T14:26:02;8.43;;;2.60;;
60016;SDS011;45869;52.698;6.210;2023-04-24T14:28:28;9.55;;;1.85;;
60016;SDS011;45869;52.698;6.210;2023-04-24T14:30:54;11.55;;;2.38;;
60016;SDS011;45869;52.698;6.210;2023-04-24T14:33:20;6.75;;;1.90;;
60016;SDS011;45869;52.698;6.210;2023-04-24T14:35:46;8.40;;;1.98;;
60016;SDS011;45869;52.698;6.210;2023-04-24T14:38:15;11.07;;;2.30;;
60016;SDS011;45869;52.698;6.210;2023-04-24T14:40:41;9.77;;;2.13;;
60016;SDS011;45869;52.698;6.210;2023-04-24T14:43:07;13.07;;;2.53;;
60016;SDS011;45869;52.698;6.210;2023-04-24T14:45:33;7.18;;;1.63;;
60016;SDS011;45869;52.698;6.210;2023-04-24T14:47:59;8.90;;;1.90;;
60016;SDS011;45869;52.698;6.210;2023-04-24T14:50:25;7.15;;;2.17;;
60016;SDS011;45869;52.698;6.210;2023-04-24T14:52:57;9.43;;;1.92;;
60016;SDS011;45869;52.698;6.210;2023-04-24T14:55:26;8.10;;;2.03;;